Time;durP1;ratioP1;P1;durP2;ratioP2;P2;SDS_P1;SDS_P2;PMS_P1;PMS_P2;Temp;Humidity;BMP_temperature;BMP_pressure;BME280_temperature;BME280_humidity;BME280_pressure;Samples;Min_cycle;Max_cycle;Signal;HPM_P1;HPM_P2
2023/08/22 00:01:18;;;;;;;6.60;4.50;;;17.20;99.90;;;;;;4838335;29;20066;-82
2023/08/22 00:03:44;;;;;;;8.40;4.57;;;17.20;99.90;;;;;;4829351;29;20184;-82
2023/08/22 00:06:09;;;;;;;8.32;4.53;;;17.20;99.90;;;;;;4836990;29;20065;-83
2023/08/22 00:08:35;;;;;;;5.40;4.00;;;17.20;99.90;;;;;;4837455;29;20053;-82
2023/08/22 00:11:01;;;;;;;6.15;3.80;;;17.20;99.90;;;;;;4830898;29;20049;-82
2023/08/22 00:13:27;;;;;;;6.40;3.70;;;17.10;99.90;;;;;;4819446;29;20057;-82
2023/08/22 00:15:58;;;;;;;7.55;4.07;;;17.00;99.90;;;;;;4836451;29;20038;-82
2023/08/22 00:18:24;;;;;;;7.47;3.75;;;17.00;99.90;;;;;;4837707;29;20128;-82
2023/08/22 00:20:50;;;;;;;7.18;3.80;;;16.90;99.90;;;;;;4833472;29;20509;-82
2023/08/22 00:23:16;;;;;;;6.28;3.58;;;16.90;99.90;;;;;;4836266;29;20450;-82
2023/08/22 00:25:42;;;;;;;8.95;4.88;;;17.00;99.90;;;;;;4829023;29;20042;-82
2023/08/22 00:28:08;;;;;;;8.68;5.18;;;17.00;99.90;;;;;;4829262;29;20055;-82
2023/08/22 00:30:33;;;;;;;5.75;4.07;;;17.00;99.90;;;;;;4832820;29;20047;-82
2023/08/22 00:32:59;;;;;;;7.30;4.60;;;17.00;99.90;;;;;;4826253;29;20046;-82
2023/08/22 00:35:28;;;;;;;8.90;6.32;;;16.90;99.90;;;;;;4825779;29;20046;-82
2023/08/22 00:37:54;;;;;;;7.80;4.90;;;16.90;99.90;;;;;;4827890;29;20149;-82
2023/08/22 00:40:20;;;;;;;9.13;6.70;;;16.90;99.90;;;;;;4822364;29;20172;-82
2023/08/22 00:42:45;;;;;;;7.72;5.75;;;16.80;99.90;;;;;;4820327;29;20383;-83
2023/08/22 00:45:11;;;;;;;6.40;4.13;;;16.90;99.90;;;;;;4828414;29;20085;-83
2023/08/22 00:47:37;;;;;;;13.00;7.95;;;16.80;99.90;;;;;;4808947;29;20068;-83
2023/08/22 00:50:04;;;;;;;10.93;7.13;;;16.80;99.90;;;;;;4825535;29;20066;-83
2023/08/22 00:52:31;;;;;;;7.72;5.65;;;16.80;99.90;;;;;;4821270;29;20053;-83
2023/08/22 00:54:56;;;;;;;9.25;5.28;;;16.70;99.90;;;;;;4807121;29;20042;-83
2023/08/22 00:57:22;;;;;;;7.38;5.40;;;16.80;99.90;;;;;;4811192;29;20060;-83
2023/08/22 00:59:55;;;;;;;7.18;5.28;;;16.70;99.90;;;;;;4806739;29;20060;-83
2023/08/22 01:02:21;;;;;;;6.88;5.15;;;16.70;99.90;;;;;;4829481;29;20421;-83
2023/08/22 01:04:47;;;;;;;7.68;5.60;;;16.80;99.90;;;;;;4823592;29;20050;-83
2023/08/22 01:07:25;;;;;;;8.55;6.03;;;16.80;99.90;;;;;;4823295;29;20469;-83
2023/08/22 01:10:06;;;;;;;15.52;11.65;;;16.90;99.90;;;;;;4826995;29;20046;-82
2023/08/22 01:12:37;;;;;;;7.78;6.63;;;16.90;99.90;;;;;;4822911;29;20054;-82
2023/08/22 01:15:22;;;;;;;7.75;5.80;;;16.80;99.90;;;;;;4820921;29;20383;-82
2023/08/22 01:17:49;;;;;;;7.53;5.75;;;16.90;99.90;;;;;;4846593;29;20041;-82
2023/08/22 01:20:16;;;;;;;5.85;4.13;;;16.90;99.90;;;;;;4812706;29;20081;-82
2023/08/22 01:22:42;;;;;;;6.90;4.35;;;16.90;99.90;;;;;;4808463;29;20126;-82
2023/08/22 01:25:09;;;;;;;7.72;5.00;;;16.90;99.90;;;;;;4829317;29;20050;-83
2023/08/22 01:27:47;;;;;;;7.30;4.15;;;16.90;99.90;;;;;;4810991;29;20038;-82
2023/08/22 01:30:33;;;;;;;7.82;3.95;;;16.90;99.90;;;;;;4813413;29;20509;-83
2023/08/22 01:33:06;;;;;;;7.95;5.00;;;16.90;99.90;;;;;;4830463;29;20057;-82
2023/08/22 01:35:34;;;;;;;7.10;4.43;;;16.80;99.90;;;;;;4827003;29;20681;-82
2023/08/22 01:38:01;;;;;;;7.32;4.78;;;16.80;99.90;;;;;;4815793;29;20118;-83
2023/08/22 01:40:28;;;;;;;7.93;4.38;;;16.80;99.90;;;;;;4808714;29;20107;-83
2023/08/22 01:42:56;;;;;;;5.30;4.40;;;16.70;99.90;;;;;;4827270;29;20107;-83
2023/08/22 01:45:22;;;;;;;7.30;4.80;;;16.70;99.90;;;;;;4829211;29;20046;-83
2023/08/22 01:47:47;;;;;;;9.40;5.57;;;16.80;99.90;;;;;;4824360;29;20050;-83
2023/08/22 01:50:13;;;;;;;8.27;5.32;;;16.80;99.90;;;;;;4822709;29;20070;-82
2023/08/22 01:52:39;;;;;;;6.25;4.93;;;16.70;99.90;;;;;;4812029;29;20421;-82
2023/08/22 01:55:06;;;;;;;6.53;4.60;;;16.80;99.90;;;;;;4829663;29;20050;-82
2023/08/22 01:57:31;;;;;;;6.80;4.38;;;16.80;99.90;;;;;;4821927;29;20057;-82
2023/08/22 01:59:58;;;;;;;25.40;5.80;;;16.70;99.90;;;;;;4818027;29;20050;-82
2023/08/22 02:02:26;;;;;;;5.40;4.70;;;16.70;99.90;;;;;;4820047;29;20129;-82
2023/08/22 02:04:52;;;;;;;8.32;5.90;;;16.70;99.90;;;;;;4826956;29;20042;-83
2023/08/22 02:07:18;;;;;;;9.05;5.60;;;16.70;99.90;;;;;;4808471;29;20058;-82
2023/08/22 02:09:44;;;;;;;6.78;4.75;;;16.70;99.90;;;;;;4810431;29;20046;-82
2023/08/22 02:12:09;;;;;;;6.13;5.03;;;16.70;99.90;;;;;;4826680;29;20056;-82
2023/08/22 02:14:35;;;;;;;6.65;5.40;;;16.60;99.90;;;;;;4828938;29;20056;-82
2023/08/22 02:17:01;;;;;;;5.90;4.53;;;16.60;99.90;;;;;;4826870;29;20046;-83
2023/08/22 02:19:26;;;;;;;6.25;4.72;;;16.70;99.90;;;;;;4827030;29;20501;-82
2023/08/22 02:21:52;;;;;;;8.02;4.38;;;16.60;99.90;;;;;;4818991;29;20039;-83
2023/08/22 02:24:18;;;;;;;7.38;4.07;;;16.70;99.90;;;;;;4819850;29;20077;-83
2023/08/22 02:26:47;;;;;;;8.10;4.85;;;16.60;99.90;;;;;;4825644;29;20540;-83
2023/08/22 02:29:12;;;;;;;6.00;4.88;;;16.60;99.90;;;;;;4828083;29;20042;-83
2023/08/22 02:31:38;;;;;;;7.45;4.93;;;16.60;99.90;;;;;;4827336;29;20571;-84
2023/08/22 02:34:04;;;;;;;6.18;4.60;;;16.60;99.90;;;;;;4823636;29;20065;-83
2023/08/22 02:36:30;;;;;;;7.13;4.80;;;16.60;99.90;;;;;;4828898;29;20049;-85
2023/08/22 02:38:56;;;;;;;8.45;7.20;;;16.50;99.90;;;;;;4827779;29;20163;-84
2023/08/22 02:41:22;;;;;;;8.57;6.25;;;16.50;99.90;;;;;;4823810;29;20042;-84
2023/08/22 02:43:47;;;;;;;9.10;6.40;;;16.50;99.90;;;;;;4823788;29;20739;-83
2023/08/22 02:46:13;;;;;;;17.42;14.23;;;16.40;99.90;;;;;;4828449;29;20056;-83
2023/08/22 02:48:39;;;;;;;15.68;12.02;;;16.40;99.90;;;;;;4822080;29;20746;-83
2023/08/22 02:51:05;;;;;;;20.00;16.13;;;16.40;99.90;;;;;;4808200;29;20057;-83
2023/08/22 02:53:31;;;;;;;14.43;12.90;;;16.40;99.90;;;;;;4822937;29;20050;-83
2023/08/22 02:55:59;;;;;;;19.30;15.43;;;16.40;99.90;;;;;;4825006;29;20053;-83
2023/08/22 02:58:25;;;;;;;12.25;10.13;;;16.40;99.90;;;;;;4822049;29;20080;-84
2023/08/22 03:00:51;;;;;;;20.17;15.63;;;16.40;99.90;;;;;;4820309;29;20872;-83
2023/08/22 03:03:17;;;;;;;16.65;13.77;;;16.40;99.90;;;;;;4823366;29;20054;-83
2023/08/22 03:05:45;;;;;;;19.65;16.55;;;16.30;99.90;;;;;;4828115;29;20046;-84
2023/08/22 03:08:11;;;;;;;16.40;14.18;;;16.30;99.90;;;;;;4834688;29;20052;-85
2023/08/22 03:10:37;;;;;;;28.02;21.48;;;16.30;99.90;;;;;;4824493;29;20042;-84
2023/08/22 03:13:05;;;;;;;10.43;9.35;;;16.30;99.90;;;;;;4833839;29;20073;-84
2023/08/22 03:15:31;;;;;;;12.70;11.35;;;16.30;99.90;;;;;;4827590;29;20557;-84
2023/08/22 03:17:58;;;;;;;13.57;12.10;;;16.30;99.90;;;;;;4827163;29;20085;-83
2023/08/22 03:20:23;;;;;;;12.30;10.95;;;16.30;99.90;;;;;;4814985;29;20046;-83
2023/08/22 03:22:49;;;;;;;13.55;12.25;;;16.30;99.90;;;;;;4815899;29;20049;-83
2023/08/22 03:25:15;;;;;;;12.18;10.57;;;16.40;99.90;;;;;;4826308;29;20471;-83
2023/08/22 03:27:41;;;;;;;10.73;9.73;;;16.40;99.90;;;;;;4832835;29;20046;-82
2023/08/22 03:30:07;;;;;;;12.23;10.95;;;16.40;99.90;;;;;;4831077;29;20046;-82
2023/08/22 03:32:33;;;;;;;12.10;10.70;;;16.40;99.90;;;;;;4826092;29;20054;-83
2023/08/22 03:34:59;;;;;;;10.52;9.38;;;16.40;99.90;;;;;;4829374;29;20053;-83
2023/08/22 03:37:25;;;;;;;10.90;9.68;;;16.40;99.90;;;;;;4827973;29;20038;-83
2023/08/22 03:39:51;;;;;;;11.55;10.40;;;16.30;99.90;;;;;;4831784;29;20413;-82
2023/08/22 03:42:19;;;;;;;11.23;9.50;;;16.30;99.90;;;;;;4812814;29;20641;-83
2023/08/22 03:44:46;;;;;;;16.08;13.98;;;16.20;99.90;;;;;;4851695;29;20791;-83
2023/08/22 03:47:14;;;;;;;12.25;11.00;;;16.20;99.90;;;;;;4831728;29;20588;-85
2023/08/22 03:49:43;;;;;;;17.52;14.23;;;16.10;99.90;;;;;;4854615;29;20054;-82
2023/08/22 03:52:10;;;;;;;14.50;13.07;;;16.00;99.90;;;;;;4815131;29;20141;-83
2023/08/22 03:54:35;;;;;;;11.60;10.32;;;16.00;99.90;;;;;;4831458;29;20082;-83
2023/08/22 03:57:01;;;;;;;25.05;19.30;;;15.90;99.90;;;;;;4853472;29;20085;-83
2023/08/22 03:59:27;;;;;;;11.60;10.50;;;15.90;99.90;;;;;;4827096;29;20065;-83
2023/08/22 04:01:53;;;;;;;16.40;13.20;;;15.80;99.90;;;;;;4832043;29;20428;-83
2023/08/22 04:04:19;;;;;;;11.60;10.50;;;15.80;99.90;;;;;;4832405;29;21012;-83
2023/08/22 04:06:44;;;;;;;15.07;13.48;;;15.80;99.90;;;;;;4840781;29;20128;-83
2023/08/22 04:09:13;;;;;;;11.68;10.48;;;15.70;99.90;;;;;;4838330;29;20042;-83
2023/08/22 04:11:42;;;;;;;12.60;11.32;;;15.70;99.90;;;;;;4854543;29;20050;-83
2023/08/22 04:14:09;;;;;;;12.45;10.98;;;15.70;99.90;;;;;;4825405;29;20726;-83
2023/08/22 04:16:34;;;;;;;16.23;13.00;;;15.60;99.90;;;;;;4823923;29;20050;-83
2023/08/22 04:19:00;;;;;;;16.13;14.32;;;15.50;99.90;;;;;;4821477;29;20061;-84
2023/08/22 04:21:26;;;;;;;13.20;11.93;;;15.40;99.90;;;;;;4819884;29;20465;-83
2023/08/22 04:23:52;;;;;;;12.50;11.23;;;15.40;99.90;;;;;;4836583;29;20061;-83
2023/08/22 04:26:18;;;;;;;10.23;9.25;;;15.30;99.90;;;;;;4851029;29;20034;-83
2023/08/22 04:28:46;;;;;;;14.10;12.43;;;15.20;99.90;;;;;;4835687;29;20129;-85
2023/08/22 04:31:12;;;;;;;14.77;13.27;;;15.20;99.90;;;;;;4813467;29;20087;-83
2023/08/22 04:33:41;;;;;;;13.35;12.00;;;15.20;99.90;;;;;;4831235;29;20094;-83
2023/08/22 04:36:07;;;;;;;12.05;10.85;;;15.10;99.90;;;;;;4835931;29;20060;-82
2023/08/22 04:38:32;;;;;;;12.75;11.32;;;15.10;99.90;;;;;;4835328;29;20497;-83
2023/08/22 04:40:58;;;;;;;11.75;10.55;;;15.20;99.90;;;;;;4851393;29;20517;-83
2023/08/22 04:43:24;;;;;;;12.25;10.95;;;15.20;99.90;;;;;;4821460;29;20477;-83
2023/08/22 04:45:52;;;;;;;12.45;11.27;;;15.20;99.90;;;;;;4850989;29;20053;-82
2023/08/22 04:48:17;;;;;;;12.15;11.05;;;15.20;99.90;;;;;;4818780;29;20054;-82
2023/08/22 04:50:43;;;;;;;11.20;10.20;;;15.30;99.90;;;;;;4820147;29;20044;-83
2023/08/22 04:53:09;;;;;;;9.70;8.70;;;15.30;99.90;;;;;;4852359;29;20038;-82
2023/08/22 04:55:35;;;;;;;8.95;8.15;;;15.30;99.90;;;;;;4836656;29;20050;-82
2023/08/22 04:58:07;;;;;;;11.88;9.43;;;15.30;99.90;;;;;;4835488;29;20049;-82
2023/08/22 05:00:32;;;;;;;9.60;8.65;;;15.30;99.90;;;;;;4845860;29;20054;-82
2023/08/22 05:03:02;;;;;;;15.05;11.07;;;15.30;99.90;;;;;;4833037;29;20562;-82
2023/08/22 05:05:27;;;;;;;12.20;11.10;;;15.30;99.90;;;;;;4821565;29;20054;-82
2023/08/22 05:07:53;;;;;;;19.30;16.73;;;15.30;99.90;;;;;;4836720;29;20045;-84
2023/08/22 05:10:19;;;;;;;26.10;20.13;;;15.30;99.90;;;;;;4825773;29;20581;-84
2023/08/22 05:12:45;;;;;;;13.68;12.27;;;15.20;99.90;;;;;;4835311;29;20050;-82
2023/08/22 05:15:13;;;;;;;10.25;9.38;;;15.20;99.90;;;;;;4816129;29;20054;-82
2023/08/22 05:17:39;;;;;;;12.10;10.90;;;15.20;99.90;;;;;;4835700;29;20134;-83
2023/08/22 05:20:06;;;;;;;15.90;13.80;;;15.20;99.90;;;;;;4828984;29;20121;-82
2023/08/22 05:22:32;;;;;;;24.73;18.33;;;15.30;99.90;;;;;;4850184;29;20073;-82
2023/08/22 05:24:58;;;;;;;15.73;14.18;;;15.30;99.90;;;;;;4836461;29;20505;-82
2023/08/22 05:27:24;;;;;;;13.98;12.45;;;15.30;99.90;;;;;;4811865;29;20132;-82
2023/08/22 05:29:50;;;;;;;15.07;12.35;;;15.30;99.90;;;;;;4851352;29;20137;-82
2023/08/22 05:32:16;;;;;;;13.00;11.80;;;15.40;99.90;;;;;;4834206;29;20073;-83
2023/08/22 05:34:42;;;;;;;14.55;13.15;;;15.40;99.90;;;;;;4836403;29;20106;-82
2023/08/22 05:37:07;;;;;;;13.40;12.10;;;15.50;99.90;;;;;;4827319;29;20134;-83
2023/08/22 05:39:33;;;;;;;11.63;10.48;;;15.60;99.90;;;;;;4835983;29;20444;-82
2023/08/22 05:41:59;;;;;;;11.93;9.88;;;15.60;99.90;;;;;;4818461;29;20474;-82
2023/08/22 05:44:25;;;;;;;11.40;10.20;;;15.70;99.90;;;;;;4819726;29;20058;-82
2023/08/22 05:46:50;;;;;;;14.60;13.05;;;15.70;99.90;;;;;;4819795;29;20049;-82
2023/08/22 05:49:16;;;;;;;10.93;9.82;;;15.80;99.90;;;;;;4820164;29;20053;-82
2023/08/22 05:51:48;;;;;;;12.77;11.40;;;15.80;99.90;;;;;;4819327;29;20060;-82
2023/08/22 05:54:14;;;;;;;14.73;13.23;;;15.90;99.90;;;;;;4854791;29;20077;-82
2023/08/22 05:56:42;;;;;;;16.80;14.77;;;15.90;99.90;;;;;;4828592;29;20057;-83
2023/08/22 05:59:08;;;;;;;19.25;17.45;;;16.10;99.90;;;;;;4843158;29;20049;-82
2023/08/22 06:01:34;;;;;;;18.50;16.58;;;16.20;99.90;;;;;;4832671;29;20042;-83
2023/08/22 06:04:00;;;;;;;18.95;17.27;;;16.30;99.90;;;;;;4818622;29;20104;-82
2023/08/22 06:06:26;;;;;;;19.30;17.40;;;16.40;99.90;;;;;;4865162;29;20054;-83
2023/08/22 06:08:51;;;;;;;19.73;16.98;;;16.50;99.90;;;;;;4839500;29;20078;-83
2023/08/22 06:11:25;;;;;;;19.27;17.42;;;16.60;99.90;;;;;;4827878;29;20141;-83
2023/08/22 06:13:50;;;;;;;20.35;18.25;;;16.70;99.90;;;;;;4856541;29;20092;-83
2023/08/22 06:16:18;;;;;;;20.67;17.75;;;16.80;99.90;;;;;;4839837;29;20407;-83
2023/08/22 06:18:44;;;;;;;18.73;16.83;;;16.90;99.90;;;;;;4838226;29;20561;-84
2023/08/22 06:21:10;;;;;;;17.83;15.98;;;17.00;99.90;;;;;;4835994;29;20054;-83
2023/08/22 06:23:36;;;;;;;18.33;16.58;;;17.10;99.90;;;;;;4834973;29;20494;-83
2023/08/22 06:26:02;;;;;;;20.33;18.35;;;17.20;99.90;;;;;;4832219;29;20121;-82
2023/08/22 06:28:27;;;;;;;18.38;15.65;;;17.30;99.90;;;;;;4834359;29;20098;-83
2023/08/22 06:30:53;;;;;;;19.55;17.75;;;17.30;99.90;;;;;;4852762;29;20050;-84
2023/08/22 06:33:19;;;;;;;17.20;15.40;;;17.40;99.90;;;;;;4836985;29;20045;-83
2023/08/22 06:35:48;;;;;;;18.67;16.85;;;17.40;99.90;;;;;;4832532;29;20512;-83
2023/08/22 06:38:13;;;;;;;17.52;14.43;;;17.50;99.90;;;;;;4835123;29;21382;-82
2023/08/22 06:40:39;;;;;;;16.77;15.10;;;17.50;99.90;;;;;;4837282;29;20050;-83
2023/08/22 06:43:05;;;;;;;17.02;13.63;;;17.50;99.90;;;;;;4852397;29;20053;-82
2023/08/22 06:45:31;;;;;;;15.90;14.30;;;17.50;99.90;;;;;;4835089;29;20062;-82
2023/08/22 06:47:57;;;;;;;15.32;13.82;;;17.50;99.90;;;;;;4826991;29;20085;-82
2023/08/22 06:50:23;;;;;;;17.08;15.38;;;17.60;99.90;;;;;;4853591;29;20386;-83
2023/08/22 06:52:49;;;;;;;17.92;14.75;;;17.60;99.90;;;;;;4834265;29;20212;-83
2023/08/22 06:55:15;;;;;;;16.75;14.98;;;17.60;99.90;;;;;;4812641;29;20560;-82
2023/08/22 06:57:41;;;;;;;17.45;13.93;;;17.60;99.90;;;;;;4820648;29;20072;-83
2023/08/22 07:00:14;;;;;;;17.10;14.88;;;17.70;99.90;;;;;;4845191;29;20054;-82
2023/08/22 07:02:42;;;;;;;16.40;13.88;;;17.80;99.90;;;;;;4826841;29;20050;-83
2023/08/22 07:05:17;;;;;;;16.65;12.93;;;17.80;99.90;;;;;;4847122;29;20163;-83
2023/08/22 07:07:43;;;;;;;17.40;12.30;;;18.00;99.90;;;;;;4811329;29;20061;-83
2023/08/22 07:10:11;;;;;;;14.40;11.90;;;18.10;99.90;;;;;;4848240;29;20070;-83
2023/08/22 07:12:37;;;;;;;14.38;11.95;;;18.20;99.90;;;;;;4810592;29;20057;-82
2023/08/22 07:15:05;;;;;;;12.00;10.70;;;18.40;99.90;;;;;;4828357;29;20428;-82
2023/08/22 07:17:31;;;;;;;14.98;10.90;;;18.50;99.90;;;;;;4810143;29;20046;-82
2023/08/22 07:19:57;;;;;;;14.55;12.27;;;18.60;99.90;;;;;;4834446;29;20060;-82
2023/08/22 07:22:24;;;;;;;14.43;11.23;;;18.70;99.90;;;;;;4833825;29;20054;-82
2023/08/22 07:24:49;;;;;;;13.45;11.05;;;18.70;99.90;;;;;;4841518;29;20052;-82
2023/08/22 07:27:15;;;;;;;13.05;9.02;;;18.70;99.90;;;;;;4821314;29;20042;-81
2023/08/22 07:29:41;;;;;;;11.30;9.20;;;18.80;99.90;;;;;;4835602;29;20062;-82
2023/08/22 07:32:13;;;;;;;11.50;10.02;;;19.00;99.90;;;;;;4837586;29;20084;-82
2023/08/22 07:34:38;;;;;;;11.50;8.80;;;19.10;99.90;;;;;;4826603;29;20057;-82
2023/08/22 07:37:04;;;;;;;11.40;9.20;;;19.30;99.90;;;;;;4836354;29;20050;-82
2023/08/22 07:39:31;;;;;;;11.30;8.90;;;19.50;99.90;;;;;;4838717;29;20045;-82
2023/08/22 07:42:00;;;;;;;13.57;8.95;;;19.60;99.90;;;;;;4827432;29;20042;-83
2023/08/22 07:44:25;;;;;;;12.05;9.13;;;19.80;99.90;;;;;;4830954;29;20501;-82
2023/08/22 07:46:51;;;;;;;11.93;8.18;;;19.90;99.90;;;;;;4836058;29;20049;-82
2023/08/22 07:49:17;;;;;;;11.10;8.82;;;20.00;99.90;;;;;;4837821;29;20098;-82
2023/08/22 07:51:43;;;;;;;12.07;8.32;;;20.10;99.90;;;;;;4833204;29;20058;-82
2023/08/22 07:54:09;;;;;;;11.90;8.60;;;20.20;99.90;;;;;;4837921;29;20050;-82
2023/08/22 07:56:35;;;;;;;12.75;7.35;;;20.20;99.90;;;;;;4840821;29;20081;-83
2023/08/22 07:59:01;;;;;;;12.40;8.40;;;20.30;99.90;;;;;;4841761;29;20085;-82
2023/08/22 08:01:30;;;;;;;10.77;6.15;;;20.40;99.90;;;;;;4812634;29;20060;-82
2023/08/22 08:03:55;;;;;;;11.40;6.60;;;20.50;99.90;;;;;;4834949;29;20073;-82
2023/08/22 08:06:24;;;;;;;11.18;6.80;;;20.50;99.90;;;;;;4840710;29;20042;-82
2023/08/22 08:08:50;;;;;;;8.57;7.45;;;20.60;99.90;;;;;;4837872;29;20052;-82
2023/08/22 08:11:16;;;;;;;10.38;7.43;;;20.70;99.90;;;;;;4840795;29;20054;-82
2023/08/22 08:13:42;;;;;;;7.97;5.60;;;20.80;99.90;;;;;;4839090;29;20128;-82
2023/08/22 08:16:08;;;;;;;8.75;5.93;;;20.90;99.90;;;;;;4840162;29;20073;-82
2023/08/22 08:18:34;;;;;;;11.52;5.68;;;20.90;99.90;;;;;;4821274;29;20087;-82
2023/08/22 08:20:59;;;;;;;8.32;5.20;;;21.00;99.90;;;;;;4831027;29;20133;-82
2023/08/22 08:23:26;;;;;;;9.95;5.78;;;21.00;99.90;;;;;;4841390;29;20150;-82
2023/08/22 08:25:55;;;;;;;8.57;5.00;;;21.10;99.90;;;;;;4838435;29;20038;-82
2023/08/22 08:28:21;;;;;;;8.57;4.82;;;21.20;99.90;;;;;;4840054;29;20082;-81
2023/08/22 08:30:47;;;;;;;6.50;4.43;;;21.30;99.90;;;;;;4837179;29;20061;-81
2023/08/22 08:33:13;;;;;;;6.85;4.47;;;21.40;99.90;;;;;;4835377;29;20048;-81
2023/08/22 08:35:38;;;;;;;7.90;5.15;;;21.50;99.90;;;;;;4825812;29;20177;-81
2023/08/22 08:38:04;;;;;;;7.95;5.13;;;21.50;99.90;;;;;;4835689;29;20045;-81
2023/08/22 08:40:35;;;;;;;7.93;4.57;;;21.50;99.90;;;;;;4837627;29;20375;-81
2023/08/22 08:43:02;;;;;;;7.07;4.68;;;21.60;99.90;;;;;;4835485;29;20078;-81
2023/08/22 08:45:29;;;;;;;6.55;3.70;;;21.70;99.90;;;;;;4831391;29;20050;-82
2023/08/22 08:47:57;;;;;;;9.10;3.90;;;21.80;99.90;;;;;;4825449;29;20489;-82
2023/08/22 08:50:24;;;;;;;6.47;3.35;;;21.90;99.90;;;;;;4828409;29;20046;-82
2023/08/22 08:52:50;;;;;;;5.90;3.22;;;21.90;99.90;;;;;;4835974;29;20057;-81
2023/08/22 08:55:16;;;;;;;3.78;2.30;;;21.90;99.90;;;;;;4838815;29;20058;-82
2023/08/22 08:57:41;;;;;;;4.90;2.15;;;21.80;99.90;;;;;;4837359;29;20089;-81
2023/08/22 09:00:16;;;;;;;7.32;2.72;;;21.70;99.90;;;;;;4820649;29;20149;-81
2023/08/22 09:02:44;;;;;;;4.95;2.13;;;21.70;99.90;;;;;;4837440;29;20085;-81
2023/08/22 09:05:15;;;;;;;5.72;2.40;;;21.70;99.90;;;;;;4830516;29;20569;-81
2023/08/22 09:07:44;;;;;;;6.03;2.30;;;21.80;99.90;;;;;;4834337;29;20417;-81
2023/08/22 09:10:15;;;;;;;5.35;2.42;;;21.80;99.90;;;;;;4818781;29;20516;-77
2023/08/22 09:12:44;;;;;;;4.82;3.00;;;21.90;99.90;;;;;;4815769;29;20347;-77
2023/08/22 09:15:18;;;;;;;7.27;3.33;;;22.00;99.90;;;;;;4827911;29;20043;-77
2023/08/22 09:17:43;;;;;;;5.25;3.13;;;21.90;99.90;;;;;;4835745;29;20082;-77
2023/08/22 09:20:10;;;;;;;6.82;2.80;;;22.00;99.90;;;;;;4819836;29;20079;-77
2023/08/22 09:22:39;;;;;;;;;;;22.10;99.90;;;;;;4813634;29;20054;-78
2023/08/22 09:25:07;;;;;;;4.90;2.47;;;22.10;99.90;;;;;;4829914;29;19925;-77
2023/08/22 09:27:33;;;;;;;5.85;2.97;;;22.10;99.90;;;;;;4831441;29;20140;-77
2023/08/22 09:30:06;;;;;;;3.88;2.33;;;22.20;99.90;;;;;;4829943;29;20144;-77
2023/08/22 09:32:32;;;;;;;7.57;2.97;;;22.40;99.90;;;;;;4824804;29;20715;-77
2023/08/22 09:35:00;;;;;;;6.53;3.10;;;22.70;99.90;;;;;;4832091;29;20491;-77
2023/08/22 09:37:37;;;;;;;4.78;3.08;;;22.90;99.90;;;;;;4817476;29;20103;-77
2023/08/22 09:40:11;;;;;;;6.68;2.88;;;23.10;99.90;;;;;;4817803;29;20145;-77
2023/08/22 09:42:41;;;;;;;6.97;3.40;;;23.30;99.90;;;;;;4834527;29;20054;-77
2023/08/22 09:45:08;;;;;;;5.40;3.08;;;23.50;99.90;;;;;;4833113;29;20106;-76
2023/08/22 09:47:39;;;;;;;7.22;3.20;;;23.60;99.90;;;;;;4833586;29;20540;-77
2023/08/22 09:50:06;;;;;;;5.22;3.10;;;23.70;99.90;;;;;;4835178;29;20472;-77
2023/08/22 09:52:36;;;;;;;4.22;2.97;;;23.80;99.90;;;;;;4833969;29;20061;-77
2023/08/22 09:55:02;;;;;;;6.05;3.20;;;23.80;99.90;;;;;;4833863;29;20504;-77
2023/08/22 09:57:29;;;;;;;5.97;3.38;;;23.80;99.90;;;;;;4836078;29;20122;-77
2023/08/22 09:59:56;;;;;;;6.53;3.55;;;23.70;99.90;;;;;;4834164;29;20555;-77
2023/08/22 10:02:22;;;;;;;6.28;3.53;;;23.70;99.90;;;;;;4834865;29;20046;-77
2023/08/22 10:04:49;;;;;;;6.20;3.35;;;23.60;99.90;;;;;;4816468;29;20130;-77
2023/08/22 10:07:15;;;;;;;7.82;3.00;;;23.50;99.90;;;;;;4827216;29;20053;-77
2023/08/22 10:09:44;;;;;;;4.95;2.70;;;23.50;99.90;;;;;;4817549;29;20054;-77
2023/08/22 10:12:14;;;;;;;7.40;3.43;;;23.60;99.90;;;;;;4820123;29;20050;-77
2023/08/22 10:14:51;;;;;;;5.18;3.13;;;23.70;99.90;;;;;;4832084;29;20049;-77
2023/08/22 10:17:17;;;;;;;6.68;3.60;;;23.90;99.90;;;;;;4818995;29;20054;-77
2023/08/22 10:19:44;;;;;;;6.32;3.08;;;24.00;99.90;;;;;;4833451;29;20085;-76
2023/08/22 10:22:12;;;;;;;6.82;3.85;;;24.00;99.90;;;;;;4819523;29;20049;-77
2023/08/22 10:24:39;;;;;;;4.65;3.00;;;24.20;99.90;;;;;;4818078;29;20049;-77
2023/08/22 10:27:09;;;;;;;5.00;3.70;;;24.40;99.90;;;;;;4835992;29;20129;-77
2023/08/22 10:29:46;;;;;;;7.90;3.83;;;24.70;99.90;;;;;;4833680;29;20633;-77
2023/08/22 10:32:11;;;;;;;6.63;4.25;;;24.90;99.90;;;;;;4810623;29;20126;-77
2023/08/22 10:34:37;;;;;;;4.35;2.70;;;24.90;99.90;;;;;;4834303;29;20054;-77
2023/08/22 10:37:04;;;;;;;6.05;2.65;;;24.90;99.90;;;;;;4833385;29;20146;-77
2023/08/22 10:39:39;;;;;;;5.35;2.70;;;25.00;99.90;;;;;;4822317;29;20100;-77
2023/08/22 10:42:25;;;;;;;7.13;3.40;;;25.10;99.90;;;;;;4824594;29;20179;-77
2023/08/22 10:44:52;;;;;;;5.43;2.38;;;25.20;99.90;;;;;;4817242;29;20058;-76
2023/08/22 10:47:24;;;;;;;6.10;2.83;;;25.30;99.90;;;;;;4827559;29;20050;-76
2023/08/22 10:49:54;;;;;;;5.05;2.33;;;25.40;99.90;;;;;;4830946;29;20057;-76
2023/08/22 10:52:26;;;;;;;5.97;2.50;;;25.30;99.90;;;;;;4830504;29;20041;-78
2023/08/22 10:55:05;;;;;;;6.00;2.65;;;25.20;99.90;;;;;;4822676;29;20049;-80
2023/08/22 10:57:32;;;;;;;5.50;2.50;;;25.10;99.90;;;;;;4833743;29;20053;-80
2023/08/22 11:00:13;;;;;;;6.95;2.60;;;25.10;99.90;;;;;;4827934;29;20058;-81
2023/08/22 11:02:43;;;;;;;5.82;2.40;;;25.10;99.90;;;;;;4824621;29;20061;-80
2023/08/22 11:05:13;;;;;;;5.63;2.08;;;25.10;99.90;;;;;;4845140;29;20056;-80
2023/08/22 11:07:41;;;;;;;5.07;1.90;;;25.10;99.90;;;;;;4820080;29;20149;-80
2023/08/22 11:10:28;;;;;;;4.78;1.70;;;25.10;99.90;;;;;;4831574;29;20066;-80
2023/08/22 11:12:55;;;;;;;6.38;1.80;;;25.20;99.90;;;;;;4821535;29;20114;-81
2023/08/22 11:15:21;;;;;;;4.20;1.00;;;25.30;99.90;;;;;;4828095;29;20523;-81
2023/08/22 11:17:47;;;;;;;3.13;1.10;;;25.40;99.90;;;;;;4834511;29;20462;-81
2023/08/22 11:20:20;;;;;;;3.95;1.52;;;25.50;99.90;;;;;;4833270;29;20077;-81
2023/08/22 11:22:46;;;;;;;4.00;1.42;;;25.60;99.90;;;;;;4832694;29;20045;-80
2023/08/22 11:25:13;;;;;;;4.35;1.88;;;25.80;99.90;;;;;;4830863;29;20042;-80
2023/08/22 11:27:43;;;;;;;8.13;2.22;;;25.90;99.90;;;;;;4838166;29;20098;-81
2023/08/22 11:30:12;;;;;;;4.88;1.40;;;26.00;99.90;;;;;;4833808;29;20054;-80
2023/08/22 11:32:38;;;;;;;;;;;26.10;99.90;;;;;;4820437;29;20094;-80
2023/08/22 11:35:10;;;;;;;4.07;2.08;;;26.20;99.90;;;;;;4836904;29;20320;-80
2023/08/22 11:37:38;;;;;;;3.97;1.95;;;26.20;99.90;;;;;;4838501;29;20142;-80
2023/08/22 11:40:08;;;;;;;2.63;1.63;;;26.20;99.20;;;;;;4817416;29;20450;-80
2023/08/22 11:42:37;;;;;;;4.00;1.67;;;26.10;99.90;;;;;;4817028;29;20388;-80
2023/08/22 11:45:13;;;;;;;4.30;1.90;;;26.20;99.90;;;;;;4836973;29;20038;-80
2023/08/22 11:47:45;;;;;;;5.22;1.50;;;26.30;99.90;;;;;;4837144;29;20050;-80
2023/08/22 11:50:18;;;;;;;3.78;1.55;;;26.50;99.90;;;;;;4837696;29;20046;-80
2023/08/22 11:52:45;;;;;;;4.22;1.50;;;26.50;99.90;;;;;;4836640;29;20556;-80
2023/08/22 11:55:25;;;;;;;5.65;1.90;;;26.50;99.90;;;;;;4821629;29;20058;-80
2023/08/22 11:57:53;;;;;;;;;;;26.40;99.80;;;;;;4836940;29;20489;-80
2023/08/22 12:00:19;;;;;;;6.68;2.03;;;26.10;99.90;;;;;;4836795;29;19929;-80
2023/08/22 12:02:52;;;;;;;5.63;1.92;;;25.90;99.90;;;;;;4836149;29;20053;-81
2023/08/22 12:05:34;;;;;;;4.80;1.90;;;25.90;99.90;;;;;;4821590;29;20057;-80
2023/08/22 12:08:06;;;;;;;3.92;1.50;;;26.00;99.90;;;;;;4820946;29;20733;-81
2023/08/22 12:10:46;;;;;;;4.93;1.50;;;26.10;99.90;;;;;;4833362;29;20053;-82
2023/08/22 12:13:14;;;;;;;4.65;1.58;;;26.10;99.90;;;;;;4834081;29;20141;-81
2023/08/22 12:15:44;;;;;;;4.75;1.73;;;26.20;99.90;;;;;;4851603;29;20046;-80
2023/08/22 12:18:11;;;;;;;6.43;1.45;;;26.30;99.10;;;;;;4835128;29;20679;-80
2023/08/22 12:20:38;;;;;;;4.75;1.70;;;26.20;98.40;;;;;;4838017;29;20509;-81
2023/08/22 12:23:05;;;;;;;4.40;1.10;;;26.30;97.70;;;;;;4836908;29;20086;-82
2023/08/22 12:25:34;;;;;;;3.67;1.35;;;26.30;96.40;;;;;;4838275;29;20050;-81
2023/08/22 12:28:03;;;;;;;4.38;1.40;;;26.30;97.40;;;;;;4827935;29;20042;-81
2023/08/22 12:30:30;;;;;;;3.92;1.48;;;26.30;96.40;;;;;;4835969;29;20532;-81
2023/08/22 12:32:56;;;;;;;2.15;0.80;;;26.40;96.60;;;;;;4835994;29;20455;-82
2023/08/22 12:35:22;;;;;;;3.08;1.35;;;26.40;96.00;;;;;;4835673;29;20041;-81
2023/08/22 12:37:48;;;;;;;5.53;1.40;;;26.50;94.20;;;;;;4836044;29;20137;-81
2023/08/22 12:40:13;;;;;;;4.38;1.50;;;26.50;93.50;;;;;;4818129;29;20106;-81
2023/08/22 12:42:45;;;;;;;2.55;1.30;;;26.50;93.50;;;;;;4819390;29;20052;-81